Flight Track Log - Related Links

Times and Time Zones

All times are in EDT time to prevent confusion due to time zone crossing. See the N345BH flight status page for this flight to view local times or setup timezone preferences in your user account.

Time Position Orientation Groundspeed Altitude Reporting Facility
EDT Latitude Longitude Course Direction KTS MPH feet Rate Location/Type
Sat 09:05:39 PM 37.9944 -85.5725 136° Southeast 261 300 11,300  Level Indianapolis Center
Sat 09:06:40 PM 37.9767 -85.4733 103° East 284 327 14,900 3,541 Climbing Indianapolis Center
Sat 09:07:41 PM 37.9308 -85.3836 123° Southeast 305 351 18,500 3,246 Climbing Indianapolis Center
Sat 09:08:42 PM 37.8661 -85.3106 138° Southeast 309 356 21,500 2,164 Climbing Indianapolis Center
Sat 09:09:43 PM 37.8033 -85.2353 137° Southeast 336 387 22,900 738 Climbing Indianapolis Center
Sat 09:10:44 PM 37.7322 -85.1536 138° Southeast 343 395 23,000 49 Climbing Indianapolis Center
Sat 09:11:00 PM 37.5771 -85.0113 136° Southeast  Level Estimated
Sat 09:11:45 PM 37.6483 -85.0503 136° Southeast 361 415 23,000  Level Indianapolis Center
Sat 09:12:46 PM 37.5714 -84.9606 137° Southeast 375 432 23,000  Level Indianapolis Center
Sat 09:13:47 PM 37.4928 -84.8692 137° Southeast 382 440 23,000  Level Indianapolis Center
Sat 09:14:48 PM 37.4136 -84.7778 137° Southeast 386 444 23,000  Level Indianapolis Center
Sat 09:15:49 PM 37.3344 -84.6861 137° Southeast 387 445 23,000  Level Indianapolis Center
Sat 09:16:50 PM 37.2558 -84.5939 137° Southeast 386 444 23,000  Level Indianapolis Center
Sat 09:17:51 PM 37.1772 -84.5031 137° Southeast 385 443 23,000  Level Indianapolis Center
Sat 09:18:52 PM 37.0989 -84.4092 136° Southeast 388 447 23,000  Level Indianapolis Center
Sat 09:19:53 PM 37.0183 -84.3172 138° Southeast 390 449 23,000  Level Indianapolis Center
Sat 09:20:54 PM 36.9397 -84.2214 136° Southeast 393 452 23,000  Level Indianapolis Center
Sat 09:21:55 PM 36.8594 -84.1289 137° Southeast 394 453 23,000  Level Indianapolis Center
Sat 09:22:56 PM 36.7769 -84.0386 139° Southeast 393 452 23,000  Level Indianapolis Center
Sat 09:23:57 PM 36.6839 -83.9331 138° Southeast 391 450 23,000  Level Indianapolis Center
Sat 09:24:58 PM 36.6033 -83.8414 138° Southeast 392 451 23,000  Level Indianapolis Center
Sat 09:25:59 PM 36.5250 -83.7528 138° Southeast 385 443 23,000  Level Indianapolis Center
Sat 09:27:00 PM 36.4531 -83.6719 138° Southeast 392 451 23,000  Level Indianapolis Center
Sat 09:28:01 PM 36.3731 -83.5825 138° Southeast 388 447 23,000 -439 Level Indianapolis Center
Sat 09:28:22 PM 36.3450 -83.5517 138° Southeast 373 429 22,400 -1,852 Descending Atlanta Center
Sat 09:29:22 PM 36.2758 -83.4722 137° Southeast 344 396 20,500 -1,950 Descending Atlanta Center
Sat 09:30:22 PM 36.2067 -83.3981 139° Southeast 339 390 18,500 -2,000 Descending Atlanta Center
Sat 09:31:22 PM 36.1397 -83.3214 137° Southeast 339 390 16,500 -2,000 Descending Atlanta Center
Sat 09:32:22 PM 36.0703 -83.2450 138° Southeast 339 390 14,500 -1,850 Descending Atlanta Center
Sat 09:33:22 PM 35.9947 -83.1611 138° Southeast 334 384 12,800 -1,400 Descending Atlanta Center
Sat 09:34:22 PM 35.9317 -83.0897 137° Southeast 329 379 11,700 -950 Descending Atlanta Center
Sat 09:35:22 PM 35.8706 -83.0214 138° Southeast 310 357 10,900 -400 Descending Atlanta Center
Sat 09:36:22 PM 35.8117 -82.9581 139° Southeast 296 341 10,900  Level Atlanta Center
Sat 09:37:22 PM 35.7567 -82.8950 137° Southeast 281 323 10,900 -50 Level Atlanta Center
Sat 09:38:22 PM 35.7081 -82.8342 135° Southeast 267 307 10,800 -1,150 Descending Atlanta Center
Sat 09:39:22 PM 35.6886 -82.7500 106° East 243 280 8,600 -1,400 Descending Atlanta Center
Sat 09:40:22 PM 35.6753 -82.6839 104° East 221 254 8,000 -950 Descending Atlanta Center
Sat 09:41:22 PM 35.6478 -82.6408 128° Southeast 176 203 6,700 -1,250 Descending Atlanta Center
Sat 09:42:22 PM 35.6014 -82.6161 157° South 164 189 5,500 -600 Descending Atlanta Center
Sat 09:43:22 PM 35.5739 -82.5808 134° Southeast 164 189 5,500  Level Atlanta Center
Sat 09:48:00 PM 35.4759 -82.5901 133° Southeast  Level FlightAware Approximate

Login

Don't have an account? Register now (free) for customized features, flight alerts, and more!